createdAt,value
2019-02-02T00:00:51.162Z,94967.12
2019-02-02T00:03:19.388Z,94978.36
2019-02-02T00:05:47.700Z,94982.08
2019-02-02T00:08:16.045Z,94984.84
2019-02-02T00:10:44.349Z,94986.16
2019-02-02T00:13:12.615Z,94987.50
2019-02-02T00:15:40.894Z,94999.80
2019-02-02T00:18:09.153Z,94994.19
2019-02-02T00:20:37.416Z,95000.11
2019-02-02T00:23:05.711Z,94992.17
2019-02-02T00:25:33.975Z,94988.86
2019-02-02T00:28:02.247Z,94988.00
2019-02-02T00:30:30.580Z,94997.91
2019-02-02T00:32:58.863Z,94993.69
2019-02-02T00:35:27.292Z,95005.71
2019-02-02T00:37:55.670Z,95001.94
2019-02-02T00:40:23.981Z,94995.74
2019-02-02T00:42:52.283Z,95001.34
2019-02-02T00:45:23.708Z,94991.47
2019-02-02T00:47:52.000Z,94992.11
2019-02-02T00:50:20.303Z,95002.23
2019-02-02T00:52:48.594Z,94997.46
2019-02-02T00:55:18.109Z,94993.00
2019-02-02T00:57:53.570Z,94991.95
2019-02-02T01:00:21.480Z,94985.86
2019-02-02T01:02:49.801Z,94988.05
2019-02-02T01:05:22.400Z,94995.55
2019-02-02T01:07:51.725Z,94989.94
2019-02-02T01:10:23.114Z,94992.61
2019-02-02T01:12:51.365Z,94990.62
2019-02-02T01:15:19.661Z,94994.88
2019-02-02T01:17:47.946Z,94984.22
2019-02-02T01:20:16.225Z,94966.80
2019-02-02T01:22:44.616Z,94966.80
2019-02-02T01:25:15.006Z,94971.54
2019-02-02T01:27:43.271Z,94962.41
2019-02-02T01:30:22.980Z,94969.47
2019-02-02T01:32:51.367Z,94980.20
2019-02-02T01:35:19.800Z,94980.39
2019-02-02T01:37:48.061Z,95013.52
2019-02-02T01:40:22.058Z,95003.90
2019-02-02T01:42:53.207Z,95000.19
2019-02-02T01:45:24.756Z,94996.47
2019-02-02T01:47:53.015Z,94985.55
2019-02-02T01:50:26.112Z,94978.42
2019-02-02T01:52:54.390Z,94961.29
2019-02-02T01:55:22.644Z,94960.23
2019-02-02T01:57:50.942Z,94968.89
2019-02-02T02:00:24.809Z,94991.33
2019-02-02T02:02:55.825Z,94980.97
2019-02-02T02:05:24.235Z,94996.08
2019-02-02T02:07:52.491Z,94993.98
2019-02-02T02:10:21.163Z,94994.45
2019-02-02T02:12:49.495Z,94994.95
2019-02-02T02:15:18.806Z,94977.92
2019-02-02T02:17:47.173Z,94978.79
2019-02-02T02:20:17.103Z,94980.89
2019-02-02T02:22:45.875Z,94985.53
2019-02-02T02:25:15.906Z,94976.88
2019-02-02T02:27:44.174Z,94970.50
2019-02-02T02:30:18.450Z,94977.26
2019-02-02T02:32:46.748Z,94984.78
2019-02-02T02:35:14.997Z,94984.41
2019-02-02T02:37:43.393Z,94977.94
2019-02-02T02:40:23.019Z,94978.67
2019-02-02T02:42:51.960Z,94992.58
2019-02-02T02:45:20.305Z,94989.44
2019-02-02T02:47:48.583Z,94993.05
2019-02-02T02:50:22.820Z,94976.09
2019-02-02T02:52:51.129Z,94980.85
2019-02-02T02:55:22.744Z,95001.05
2019-02-02T02:57:51.094Z,94994.36
2019-02-02T03:00:21.367Z,95001.58
2019-02-02T03:02:51.282Z,94995.50
2019-02-02T03:05:19.608Z,95001.58
2019-02-02T03:07:49.046Z,95001.98
2019-02-02T03:10:19.338Z,95010.05
2019-02-02T03:12:49.351Z,94992.09
2019-02-02T03:15:18.765Z,94999.52
2019-02-02T03:17:47.846Z,95002.63
2019-02-02T03:20:16.444Z,94999.21
2019-02-02T03:22:44.793Z,94993.03
2019-02-02T03:25:16.007Z,95003.76
2019-02-02T03:27:44.340Z,95008.41
2019-02-02T03:30:17.572Z,95002.63
2019-02-02T03:32:45.886Z,95009.41
2019-02-02T03:35:15.858Z,95009.00
2019-02-02T03:37:44.197Z,94992.36
2019-02-02T03:40:14.842Z,94997.30
2019-02-02T03:42:43.196Z,94786.15
2019-02-02T03:45:14.628Z,95000.44
2019-02-02T03:47:42.962Z,95000.84
2019-02-02T03:50:12.062Z,95006.63
2019-02-02T03:52:40.345Z,95024.98
2019-02-02T03:55:11.459Z,95030.03
2019-02-02T03:57:39.739Z,95025.18
2019-02-02T04:00:13.766Z,95033.00
2019-02-02T04:02:42.032Z,95037.95
2019-02-02T04:05:13.331Z,95023.47
2019-02-02T04:07:41.710Z,95014.05
2019-02-02T04:10:12.214Z,95015.98
2019-02-02T04:12:40.467Z,95008.17
2019-02-02T04:15:10.692Z,95004.59
2019-02-02T04:17:39.075Z,95009.05
2019-02-02T04:20:10.574Z,95020.27
2019-02-02T04:22:38.912Z,95020.98
2019-02-02T04:25:08.338Z,95023.75
2019-02-02T04:27:36.690Z,95031.37
2019-02-02T04:30:14.460Z,95038.69
2019-02-02T04:32:42.743Z,95038.52
2019-02-02T04:35:11.143Z,95044.80
2019-02-02T04:37:39.477Z,95039.48
2019-02-02T04:40:10.658Z,95043.77
2019-02-02T04:42:38.920Z,95036.34
2019-02-02T04:45:09.709Z,95032.89
2019-02-02T04:47:38.023Z,95041.55
2019-02-02T04:50:09.375Z,95042.69
2019-02-02T04:52:37.769Z,95034.13
2019-02-02T04:55:07.290Z,95031.96
2019-02-02T04:57:35.606Z,95057.06
2019-02-02T05:00:04.849Z,95065.23
2019-02-02T05:02:33.141Z,95065.02
2019-02-02T05:05:01.469Z,95064.66
2019-02-02T05:07:31.383Z,95059.20
2019-02-02T05:10:01.309Z,95057.91
2019-02-02T05:12:29.587Z,95056.59
2019-02-02T05:14:57.893Z,95059.55
2019-02-02T05:17:26.181Z,95057.63
2019-02-02T05:19:54.578Z,95043.39
2019-02-02T05:22:22.909Z,95049.95
2019-02-02T05:24:51.240Z,95045.47
2019-02-02T05:27:19.544Z,95059.17
2019-02-02T05:29:47.811Z,95066.59
2019-02-02T05:32:16.228Z,95088.86
2019-02-02T05:34:44.463Z,95098.45
2019-02-02T05:37:12.813Z,95101.23
2019-02-02T05:39:41.148Z,95106.58
2019-02-02T05:42:09.443Z,95104.97
2019-02-02T05:44:37.717Z,95103.83
2019-02-02T05:47:06.002Z,95096.24
2019-02-02T05:49:34.271Z,95084.81
2019-02-02T05:52:02.553Z,95071.59
2019-02-02T05:54:30.844Z,95083.58
2019-02-02T05:56:59.112Z,95088.62
2019-02-02T05:59:27.425Z,95077.78
2019-02-02T06:01:55.732Z,95074.34
2019-02-02T06:04:24.020Z,95067.76
2019-02-02T06:06:52.323Z,95072.54
2019-02-02T06:09:22.842Z,95091.93
2019-02-02T06:11:51.331Z,95095.11
2019-02-02T06:14:19.716Z,95104.06
2019-02-02T06:16:48.059Z,95106.23
2019-02-02T06:19:16.318Z,95108.17
2019-02-02T06:21:44.724Z,95114.63
2019-02-02T06:24:12.972Z,95135.09
2019-02-02T06:26:41.347Z,95124.90
2019-02-02T06:29:09.720Z,95136.64
2019-02-02T06:31:38.010Z,95147.88
2019-02-02T06:34:06.299Z,95171.39
2019-02-02T06:36:37.604Z,95182.69
2019-02-02T06:39:07.041Z,95191.45
2019-02-02T06:41:35.305Z,95200.38
2019-02-02T06:44:03.573Z,95207.44
2019-02-02T06:46:43.041Z,95207.08
2019-02-02T06:49:01.944Z,95204.59
2019-02-02T06:51:30.360Z,95212.76
2019-02-02T06:53:58.715Z,95204.59
2019-02-02T06:56:26.969Z,95202.39
2019-02-02T06:58:55.360Z,95214.39
2019-02-02T07:01:23.732Z,95217.23
2019-02-02T07:03:52.020Z,95226.77
2019-02-02T07:06:20.282Z,95225.43
2019-02-02T07:08:48.538Z,95235.03
2019-02-02T07:11:16.804Z,95240.28
2019-02-02T07:13:45.068Z,95239.05
2019-02-02T07:16:13.348Z,95241.12
2019-02-02T07:18:41.610Z,95245.33
2019-02-02T07:21:09.870Z,95256.17
2019-02-02T07:23:38.132Z,95260.48
2019-02-02T07:26:06.395Z,95258.48
2019-02-02T07:28:34.699Z,95268.02
2019-02-02T07:31:02.970Z,95267.25
2019-02-02T07:33:31.337Z,95252.41
2019-02-02T07:35:59.599Z,95259.56
2019-02-02T07:38:27.863Z,95259.66
2019-02-02T07:40:56.151Z,95271.53
2019-02-02T07:43:24.406Z,95282.15
2019-02-02T07:45:52.656Z,95290.41
2019-02-02T07:48:20.957Z,95278.24
2019-02-02T07:50:49.212Z,95271.69
2019-02-02T07:53:17.492Z,95282.27
2019-02-02T07:55:45.755Z,95289.33
2019-02-02T07:58:14.106Z,95287.22
2019-02-02T08:00:42.393Z,95291.53
2019-02-02T08:03:10.713Z,95288.55
2019-02-02T08:05:39.148Z,95160.87
2019-02-02T08:08:07.404Z,95300.00
2019-02-02T08:10:35.675Z,95289.57
2019-02-02T08:13:04.284Z,95295.09
2019-02-02T08:15:33.641Z,95306.08
2019-02-02T08:18:01.897Z,95303.30
2019-02-02T08:20:30.160Z,95292.36
2019-02-02T08:22:58.433Z,95286.67
2019-02-02T08:25:26.689Z,95287.14
2019-02-02T08:27:55.149Z,95289.45
2019-02-02T08:30:25.759Z,95292.50
2019-02-02T08:32:54.026Z,95291.83
2019-02-02T08:35:22.298Z,95304.42
2019-02-02T08:37:50.549Z,95309.88
2019-02-02T08:40:19.780Z,95320.83
2019-02-02T08:42:48.094Z,95346.30
2019-02-02T08:45:16.382Z,95348.22
2019-02-02T08:47:44.719Z,95349.86
2019-02-02T08:50:24.772Z,95359.34
2019-02-02T08:52:53.098Z,95358.77
2019-02-02T08:55:21.413Z,95356.50
2019-02-02T08:57:49.734Z,95363.46
2019-02-02T09:00:19.767Z,95367.55
2019-02-02T09:02:48.261Z,95363.46
2019-02-02T09:05:18.754Z,95372.04
2019-02-02T09:07:47.060Z,95378.13
2019-02-02T09:10:20.301Z,95383.45
2019-02-02T09:12:48.659Z,95391.30
2019-02-02T09:15:18.156Z,95395.69
2019-02-02T09:17:46.422Z,95394.08
2019-02-02T09:20:15.242Z,95397.13
2019-02-02T09:22:43.742Z,95404.87
2019-02-02T09:25:14.143Z,95389.80
2019-02-02T09:27:42.499Z,95387.31
2019-02-02T09:30:19.658Z,95392.38
2019-02-02T09:32:47.912Z,95387.82
2019-02-02T09:35:16.187Z,95385.55
2019-02-02T09:37:44.436Z,95384.61
2019-02-02T09:40:15.241Z,95389.96
2019-02-02T09:42:43.502Z,95386.81
2019-02-02T09:45:14.511Z,95386.91
2019-02-02T09:47:42.842Z,95383.39
2019-02-02T09:50:13.946Z,95369.18
2019-02-02T09:52:42.283Z,95382.48
2019-02-02T09:55:13.417Z,95392.90
2019-02-02T09:57:41.819Z,95409.41
2019-02-02T10:00:15.900Z,95418.56
2019-02-02T10:02:46.050Z,95427.25
2019-02-02T10:05:14.156Z,95431.54
2019-02-02T10:07:42.450Z,95430.13
2019-02-02T10:10:14.107Z,95430.64
2019-02-02T10:12:42.406Z,95428.17
2019-02-02T10:15:10.985Z,95429.63
2019-02-02T10:17:39.238Z,95438.90
2019-02-02T10:20:15.923Z,95442.70
2019-02-02T10:22:44.188Z,95452.55
2019-02-02T10:25:15.291Z,95462.33
2019-02-02T10:27:43.551Z,95458.13
2019-02-02T10:30:35.700Z,95459.06
2019-02-02T10:33:04.057Z,95460.75
2019-02-02T10:35:32.383Z,95462.93
2019-02-02T10:38:00.719Z,95472.47
2019-02-02T10:40:30.131Z,95478.95
2019-02-02T10:42:58.624Z,95484.57
2019-02-02T10:45:26.903Z,95493.27
2019-02-02T10:47:55.175Z,95504.92
2019-02-02T10:50:25.070Z,95503.53
2019-02-02T10:52:53.335Z,95506.80
2019-02-02T10:55:21.606Z,95499.06
2019-02-02T10:57:50.151Z,95500.09
2019-02-02T11:00:21.362Z,95495.59
2019-02-02T11:02:49.609Z,95501.31
2019-02-02T11:05:18.052Z,95506.02
2019-02-02T11:07:46.913Z,95508.78
2019-02-02T11:10:18.806Z,95516.35
2019-02-02T11:12:47.654Z,95508.75
2019-02-02T11:15:21.353Z,95507.42
2019-02-02T11:17:52.107Z,95506.78
2019-02-02T11:20:22.902Z,95498.26
2019-02-02T11:22:51.577Z,95505.07
2019-02-02T11:25:20.506Z,95502.86
2019-02-02T11:27:49.010Z,95510.41
2019-02-02T11:30:19.050Z,95494.42
2019-02-02T11:32:47.714Z,95498.99
2019-02-02T11:35:19.870Z,95502.73
2019-02-02T11:37:49.940Z,95514.52
2019-02-02T11:40:23.331Z,95515.06
2019-02-02T11:42:51.631Z,95522.16
2019-02-02T11:45:20.101Z,95524.92
2019-02-02T11:47:48.534Z,95508.24
2019-02-02T11:50:18.637Z,95500.08
2019-02-02T11:52:47.023Z,95508.08
2019-02-02T11:55:23.401Z,95512.25
2019-02-02T11:57:51.751Z,95507.98
2019-02-02T12:00:22.477Z,95513.66
2019-02-02T12:02:50.959Z,95519.72
2019-02-02T12:05:19.224Z,95520.59
2019-02-02T12:07:47.538Z,95522.28
2019-02-02T12:10:21.753Z,95541.16
2019-02-02T12:12:50.072Z,95534.09
2019-02-02T12:15:19.502Z,95527.37
2019-02-02T12:17:47.911Z,95521.70
2019-02-02T12:20:18.694Z,95517.11
2019-02-02T12:22:47.049Z,95524.64
2019-02-02T12:25:15.327Z,95281.17
2019-02-02T12:27:43.728Z,95528.66
2019-02-02T12:30:30.094Z,95536.89
2019-02-02T12:32:58.465Z,95542.84
2019-02-02T12:35:28.385Z,95546.38
2019-02-02T12:37:56.707Z,95549.62
2019-02-02T12:40:26.615Z,95549.65
2019-02-02T12:42:54.959Z,95545.33
2019-02-02T12:45:38.193Z,95550.48
2019-02-02T12:48:06.619Z,95552.57
2019-02-02T12:50:34.877Z,95558.39
2019-02-02T12:53:03.170Z,95548.95
2019-02-02T12:55:31.440Z,95552.53
2019-02-02T12:57:59.704Z,95544.59
2019-02-02T13:00:28.056Z,95544.97
2019-02-02T13:02:56.422Z,95538.97
2019-02-02T13:07:53.367Z,95544.20
2019-02-02T13:10:24.635Z,95538.90
2019-02-02T13:12:53.335Z,95534.17
2019-02-02T13:15:21.612Z,95544.34
2019-02-02T13:17:49.961Z,95549.39
2019-02-02T13:20:18.612Z,95542.85
2019-02-02T13:22:46.873Z,95561.50
2019-02-02T13:25:20.518Z,95556.75
2019-02-02T13:27:48.797Z,95560.73
2019-02-02T13:30:31.728Z,95572.83
2019-02-02T13:33:00.038Z,95579.00
2019-02-02T13:35:30.184Z,95591.43
2019-02-02T13:37:58.441Z,95591.58
2019-02-02T13:40:26.701Z,95614.47
2019-02-02T13:42:54.979Z,95593.44
2019-02-02T13:45:23.520Z,95598.21
2019-02-02T13:47:51.976Z,95601.50
2019-02-02T13:50:20.361Z,95611.91
2019-02-02T13:52:50.241Z,95619.02
2019-02-02T13:55:18.508Z,95614.55
2019-02-02T13:57:46.812Z,95611.09
2019-02-02T14:00:32.564Z,95614.61
2019-02-02T14:03:03.248Z,95607.11
2019-02-02T14:05:30.911Z,95616.88
2019-02-02T14:08:00.128Z,95610.47
2019-02-02T14:10:30.770Z,95614.38
2019-02-02T14:12:59.148Z,95614.53
2019-02-02T14:15:27.420Z,95608.77
2019-02-02T14:17:55.698Z,95608.06
2019-02-02T14:20:24.027Z,95603.94
2019-02-02T14:22:52.294Z,95614.69
2019-02-02T14:25:20.578Z,95627.19
2019-02-02T14:27:48.845Z,95629.52
2019-02-02T14:30:23.504Z,95628.98
2019-02-02T14:32:54.636Z,95626.63
2019-02-02T14:35:24.014Z,95627.34
2019-02-02T14:37:52.274Z,95635.59
2019-02-02T14:40:21.297Z,95634.48
2019-02-02T14:42:49.700Z,95631.53
2019-02-02T14:45:20.427Z,95628.87
2019-02-02T14:47:48.704Z,95628.25
2019-02-02T14:50:19.352Z,95628.00
2019-02-02T14:52:47.735Z,95629.00
2019-02-02T14:55:21.184Z,95627.43
2019-02-02T14:57:49.449Z,95626.77
2019-02-02T15:00:27.389Z,95622.48
2019-02-02T15:02:55.666Z,95628.23
2019-02-02T15:05:23.904Z,95627.77
2019-02-02T15:07:52.231Z,95625.40
2019-02-02T15:10:21.438Z,95628.44
2019-02-02T15:12:49.771Z,95637.76
2019-02-02T15:15:18.139Z,95636.00
2019-02-02T15:17:46.468Z,95634.13
2019-02-02T15:20:22.320Z,95640.19
2019-02-02T15:22:50.652Z,95639.94
2019-02-02T15:25:18.917Z,95638.06
2019-02-02T15:27:47.182Z,95641.83
2019-02-02T15:30:21.247Z,95645.61
2019-02-02T15:32:49.511Z,95653.44
2019-02-02T15:35:17.770Z,95654.63
2019-02-02T15:37:46.031Z,95653.41
2019-02-02T15:40:17.203Z,95658.27
2019-02-02T15:42:45.510Z,95658.66
2019-02-02T15:45:16.747Z,95689.19
2019-02-02T15:47:45.004Z,95665.76
2019-02-02T15:50:15.312Z,95667.60
2019-02-02T15:52:43.633Z,95665.69
2019-02-02T15:55:14.258Z,95672.61
2019-02-02T15:57:42.519Z,95687.00
2019-02-02T16:00:22.788Z,95694.47
2019-02-02T16:02:51.052Z,95695.84
2019-02-02T16:05:20.655Z,95698.83
2019-02-02T16:07:50.370Z,95697.09
2019-02-02T16:10:24.551Z,95695.16
2019-02-02T16:12:52.873Z,95701.19
2019-02-02T16:15:21.325Z,95707.79
2019-02-02T16:17:49.603Z,95700.81
2019-02-02T16:20:26.915Z,95697.73
2019-02-02T16:22:55.167Z,95703.36
2019-02-02T16:25:23.476Z,95710.80
2019-02-02T16:27:51.740Z,95722.33
2019-02-02T16:30:25.069Z,95728.61
2019-02-02T16:32:53.346Z,95747.78
2019-02-02T16:35:21.599Z,95749.44
2019-02-02T16:37:49.900Z,95752.19
2019-02-02T16:40:24.085Z,95753.91
2019-02-02T16:42:53.641Z,95761.34
2019-02-02T16:45:35.015Z,95783.81
2019-02-02T16:48:03.639Z,95793.59
2019-02-02T16:50:31.900Z,95801.48
2019-02-02T16:53:00.168Z,95799.93
2019-02-02T16:55:28.613Z,95794.86
2019-02-02T16:57:56.827Z,95803.23
2019-02-02T17:00:30.475Z,95805.44
2019-02-02T17:02:58.721Z,95815.15
2019-02-02T17:05:26.989Z,95809.23
2019-02-02T17:07:55.283Z,95801.73
2019-02-02T17:10:25.782Z,95800.96
2019-02-02T17:12:54.050Z,95802.31
2019-02-02T17:15:22.308Z,95805.00
2019-02-02T17:17:50.867Z,95809.16
2019-02-02T17:20:21.862Z,95812.98
2019-02-02T17:22:50.121Z,95821.89
2019-02-02T17:25:22.778Z,95829.73
2019-02-02T17:27:50.594Z,95832.91
2019-02-02T17:30:24.204Z,95835.77
2019-02-02T17:32:54.765Z,95839.07
2019-02-02T17:35:23.021Z,95842.69
2019-02-02T17:37:51.290Z,95844.04
2019-02-02T17:40:25.057Z,95839.55
2019-02-02T17:42:53.390Z,95851.59
2019-02-02T17:45:22.743Z,95863.50
2019-02-02T17:47:51.010Z,95862.87
2019-02-02T17:50:21.118Z,95860.31
2019-02-02T17:52:49.410Z,95855.90
2019-02-02T17:55:17.664Z,95852.52
2019-02-02T17:57:45.991Z,95856.00
2019-02-02T18:00:24.463Z,95853.23
2019-02-02T18:02:52.725Z,95849.71
2019-02-02T18:05:21.085Z,95841.78
2019-02-02T18:07:49.345Z,95834.00
2019-02-02T18:10:17.945Z,95835.70
2019-02-02T18:12:46.208Z,95832.19
2019-02-02T18:15:15.811Z,95812.16
2019-02-02T18:17:44.106Z,95811.81
2019-02-02T18:20:16.287Z,95816.80
2019-02-02T18:22:44.616Z,95818.83
2019-02-02T18:25:14.383Z,95826.91
2019-02-02T18:27:42.676Z,95828.62
2019-02-02T18:30:21.763Z,95831.61
2019-02-02T18:32:50.060Z,95834.56
2019-02-02T18:35:18.324Z,95844.95
2019-02-02T18:37:46.590Z,95841.87
2019-02-02T18:40:19.330Z,95845.81
2019-02-02T18:42:47.594Z,95850.70
2019-02-02T18:45:19.146Z,95846.37
2019-02-02T18:47:47.474Z,95839.53
2019-02-02T18:50:17.559Z,95841.00
2019-02-02T18:52:47.567Z,95860.22
2019-02-02T18:55:24.569Z,94903.17
2019-02-02T18:57:52.833Z,95867.00
2019-02-02T19:00:21.712Z,95873.67
2019-02-02T19:02:50.023Z,95891.91
2019-02-02T19:05:18.297Z,95888.66
2019-02-02T19:07:46.662Z,95881.88
2019-02-02T19:10:23.700Z,95878.52
2019-02-02T19:12:52.123Z,95875.79
2019-02-02T19:15:20.383Z,95881.11
2019-02-02T19:17:48.646Z,95883.00
2019-02-02T19:20:19.074Z,95876.21
2019-02-02T19:22:47.538Z,95882.52
2019-02-02T19:25:15.800Z,95885.25
2019-02-02T19:27:44.157Z,95890.57
2019-02-02T19:30:15.756Z,95888.49
2019-02-02T19:32:44.025Z,95899.13
2019-02-02T19:35:16.233Z,95902.84
2019-02-02T19:37:42.303Z,95906.69
2019-02-02T19:40:13.688Z,95903.84
2019-02-02T19:42:41.961Z,95905.08
2019-02-02T19:45:19.837Z,95903.08
2019-02-02T19:47:48.098Z,95902.35
2019-02-02T19:50:19.139Z,95900.10
2019-02-02T19:52:47.410Z,95902.58
2019-02-02T19:55:15.672Z,95893.79
2019-02-02T19:57:43.959Z,95893.28
2019-02-02T20:00:15.529Z,95891.20
2019-02-02T20:02:43.792Z,95900.23
2019-02-02T20:05:12.060Z,95898.88
2019-02-02T20:07:40.369Z,95899.36
2019-02-02T20:10:17.077Z,95905.20
2019-02-02T20:12:45.364Z,95910.27
2019-02-02T20:15:21.059Z,95908.61
2019-02-02T20:17:49.355Z,95903.52
2019-02-02T20:20:22.353Z,95906.64
2019-02-02T20:22:50.790Z,95917.91
2019-02-02T20:25:19.052Z,95924.45
2019-02-02T20:27:47.325Z,95926.94
2019-02-02T20:30:24.738Z,95932.83
2019-02-02T20:32:53.006Z,95932.04
2019-02-02T20:35:21.281Z,95945.27
2019-02-02T20:37:49.566Z,95955.69
2019-02-02T20:40:23.008Z,95967.22
2019-02-02T20:42:51.346Z,95982.21
2019-02-02T20:45:22.044Z,95994.70
2019-02-02T20:47:50.420Z,95999.89
2019-02-02T20:50:20.986Z,96015.13
2019-02-02T20:52:52.057Z,96023.75
2019-02-02T20:55:25.972Z,96050.55
2019-02-02T20:57:57.052Z,96068.37
2019-02-02T21:00:27.303Z,96080.25
2019-02-02T21:02:55.737Z,96088.29
2019-02-02T21:05:26.221Z,96083.42
2019-02-02T21:07:56.180Z,96085.48
2019-02-02T21:10:25.429Z,96086.48
2019-02-02T21:12:53.846Z,96087.72
2019-02-02T21:15:22.170Z,96088.62
2019-02-02T21:17:52.217Z,96085.14
2019-02-02T21:20:25.587Z,96080.63
2019-02-02T21:22:53.998Z,96084.53
2019-02-02T21:25:22.356Z,96084.91
2019-02-02T21:27:50.769Z,96084.31
2019-02-02T21:30:21.517Z,96080.23
2019-02-02T21:32:49.899Z,96073.41
2019-02-02T21:35:18.227Z,96070.69
2019-02-02T21:37:46.826Z,96070.23
2019-02-02T21:40:17.461Z,96065.93
2019-02-02T21:42:45.806Z,96062.26
2019-02-02T21:45:14.932Z,96060.63
2019-02-02T21:47:43.231Z,96052.11
2019-02-02T21:50:20.839Z,96054.19
2019-02-02T21:52:49.259Z,96048.88
2019-02-02T21:55:20.782Z,96052.35
2019-02-02T21:57:49.087Z,96054.47
2019-02-02T22:00:20.118Z,96049.89
2019-02-02T22:02:48.443Z,96044.47
2019-02-02T22:05:16.797Z,96048.83
2019-02-02T22:07:47.265Z,96051.19
2019-02-02T22:10:15.818Z,96055.93
2019-02-02T22:12:44.151Z,96046.42
2019-02-02T22:15:26.922Z,96043.59
2019-02-02T22:17:55.215Z,96040.00
2019-02-02T22:20:23.614Z,96043.72
2019-02-02T22:22:51.965Z,96048.95
2019-02-02T22:25:29.176Z,96044.11
2019-02-02T22:27:57.480Z,96050.31
2019-02-02T22:30:27.683Z,96043.48
2019-02-02T22:32:55.949Z,96035.69
2019-02-02T22:35:24.296Z,96042.64
2019-02-02T22:37:52.563Z,96042.25
2019-02-02T22:40:28.102Z,96047.44
2019-02-02T22:42:56.441Z,96057.47
2019-02-02T22:45:24.986Z,96062.70
2019-02-02T22:47:53.328Z,96064.42
2019-02-02T22:50:23.343Z,96074.46
2019-02-02T22:52:51.656Z,96084.37
2019-02-02T22:55:23.948Z,96077.24
2019-02-02T22:57:52.231Z,96079.84
2019-02-02T23:00:51.991Z,96087.16
2019-02-02T23:03:41.770Z,96087.09
2019-02-02T23:06:38.921Z,96079.02
2019-02-02T23:09:26.932Z,96082.25
2019-02-02T23:12:07.635Z,96077.00
2019-02-02T23:15:04.476Z,96063.94
2019-02-02T23:17:32.753Z,96064.66
2019-02-02T23:20:01.211Z,96056.44
2019-02-02T23:22:29.489Z,96046.16
2019-02-02T23:24:57.956Z,96041.95
2019-02-02T23:27:26.245Z,96052.83
2019-02-02T23:29:54.531Z,96062.14
2019-02-02T23:32:22.827Z,96082.22
2019-02-02T23:34:51.274Z,96078.98
2019-02-02T23:37:19.569Z,96087.41
2019-02-02T23:39:47.834Z,96069.70
2019-02-02T23:42:16.129Z,96073.08
2019-02-02T23:44:44.416Z,96074.20
2019-02-02T23:47:12.694Z,96071.72
2019-02-02T23:49:40.939Z,96074.44
2019-02-02T23:52:09.227Z,96089.80
2019-02-02T23:54:37.509Z,96098.95
2019-02-02T23:57:05.796Z,96097.47
2019-02-02T23:59:35.273Z,96093.50
